Main page
METAR-TAF:

METAR-TAF

Airports :

San Fernando Airport

San Fernando, Argentina

latitude: 34-27-11S, longitude: 058-35-23W, elevation: 3 m

Current weather observation

The report was made 26 minutes ago, at 00:00 UTC
Calm wind
Temperature 13°C
Humidity 82%
Pressure 1024 hPa
Visibility 10 km or more
no clouds below 1500 m and no cumulonimbus

METAR: SADF 240000Z 00000KT CAVOK 13/10 Q1024

Time: 21:26 (00:26 UTC)

Forecast

The report was made 1 hour and 26 minutes ago, at 23:00 UTC
Forecast valid from 24 at 00 UTC to 24 at 24 UTC
Wind 3 kt from variable directions
Visibility 10 km or more
no clouds below 1500 m and no cumulonimbus
Becoming
from 24 at 16 UTC to 24 at 18 UTC
Wind 10 kt from the North

TAF: SADF 232300Z 2400/2424 VRB03KT CAVOK TX19/2418Z TN08/2411Z BECMG 2416/2418 36010KT

Weather observations and forecasts of more than 4000 airports (METAR and TAF reports).

The available stations are represented by yellow and red dots on the map.

Hover mouse over dot to see the name of the station.

Then click to see weather observations and forecasts.

To change the map : click on the green buttons with a black cross to zoom in, on the green button with a dash to zoom out, or on the green arrows for adjacent maps.


METAR-TAF: